Monday, May 30, 2016
08:47 UTC
  |  Log In   |  Register Free
Airport Search:

Hampton Roads Executive Airport
(KPVG)

Hampton Roads Executive Airport Diagram
No Airport Diagram Available

FAA data valid effective Mar 31 2016 - May 26 2016 (unless otherwise noted).

 
 
 
 
 
 
 
 
 
 
 
 
 
 
Current Aviation Weather for KPVG

Weather Summary


The most recent METAR observation for PVG was updated at: 12:55 UTC
METAR for KPVG is not available. Closest METAR is for KCPK
KPVG  (most recent observation was updatred at 30:08 UTC)
300835Z AUTO 17004KT BKN005 BKN120 23/22 A3002 RMK AO1

KCPK  (9.2 nm NW)   (most recent observation was updated at 30:08 UTC)
300835Z AUTO 16004KT 10SM BKN004 BKN049 BKN080 23/22 A3000 RMK AO2 T02250220

KSFQ  (9.4 nm NE)   (most recent observation was updated at 30:08 UTC)
300835Z AUTO 14004KT 7SM BKN004 OVC010 22/22 A3001 RMK AO2 T02200219

TAF for KPVG is not available.
KNGU  (12.2 nm SW)   (most recent observation was updatred at UTC)
3007/3107 VRB06KT 9999 VCSH FEW010 BKN140 BKN190 QNH2996INS TEMPO 3007/3013 3200 SHRA BR BKN005 OVC020 BECMG 3013/3015 VRB05KT 9999 VCTS BKN020CB OVC040 QNH2995INS TEMPO 3015/3021 VRB15G25KT 4800 TSRA BR BKN010CB OVC030 TEMPO 3021/3103 VRB15G25KT 4800 TSRA BR BKN010CB OVC030 BECMG 3103/3105 VRB05KT 3200 BR VCSH BKN020 BKN060 QNH2994INS T23/3018Z T20/3106Z FN00175


KORF  (13.7 nm SW)   (most recent observation was updatred at 30:05 UTC)
300541Z 3006/3106 18006KT P6SM -SHRADZ BKN050 BKN200 FM301400 VRB06KT 5SM -RA BR BKN010 BKN050 OVC150 FM310000 10004KT P6SM -RA BKN020 OVC070


KLFI  (18.7 nm SW)   (most recent observation was updatred at 30:07 UTC)
AMD 300734Z 3007/3107 VRB06KT 9999 SCT010 OVC045 QNH2997INS BECMG 3012/3013 VRB06KT 6000 -SHRA OVC010 QNH2992INS BECMG 3101/3102 VRB06KT 3200 -SHRA BR BKN005 OVC025 QNH2990INS TX25/3015Z TN21/3010Z
GlobalAir.com is loading additional information.
 Current Weather at PVG
72.0 F° (22.0 C°)

North winds at 0.0 mph
Pressure:
30.03 in
Humidity:
94%
Wind:
North at 0.0 mph
Dew Point:
69.8 F° (21.0 C°)
Visibility:
mi
PVG NOAA Radar




Find All Airport Services Find A Hotel Find A Rental Car Find A Golf Course Find A Restaurant $100 Hamburger



Airport Weather Forecast for KPVG

Translated METAR for KPVG (0835 UTC)
METAR:
KPVG 300835Z AUTO 17004KT BKN005 BKN120 23/22 A3002 RMK AO1
Conditions at:
KPVG (Hampton Roads Executive, VA) observed 0835 UTC 30 May 2016
Temperature:
23°C (73.4°F)
Dewpoint:
not reported - refer to area weather report
Pressure:
30.02 inches Hg (1016.6 mb)
Winds:
from the S (170 degrees) at 4.6 mph (4 knots: 2.1 m/s)
Visibility:
not reported - refer to area weather report
Ceiling:
12,000 feet AGL
Clouds:
Broken Cloud Cover at 12,000 feet AGL
Remarks:
site is un-manned
site is automated and does NOT have a precipitation sensor

Translated TAF for KNGU (Norfolk Ns (Chambers Fld), VA) ( UTC)
TAF text:
KNGU 3007/3107 VRB06KT 9999 VCSH FEW010 BKN140 BKN190 QNH2996INS
Forecast period:
Monday May 30 2016 07:00 UTC - Tuesday May 31 2016 07:00 UTC
Forecast type:
FROM: standard forecast or significant change
Winds:
variable wind direction at 6.9 mph (6 knots: 3.1 m/s)
Visibility:
Ceiling:
14,000 feet AGL
Clouds:
Few Clouds at 1,000 feet AGL
Broken Cloud Cover at 14,000 feet AGL
Broken Cloud Cover at 19,000 feet AGL
Weather:
Moderate In Vicinity Shower(s)
TAF text:
3007/3013 3200 SHRA BR BKN005 OVC020 BECMG 3013/3015 VRB05KT 9999 VCTS BKN020CB OVC040 QNH2995INS
Forecast period:
Tuesday May 31 2016 07:00 UTC - Tuesday May 31 2016 13:00 UTC
Forecast type:
FROM: standard forecast or significant change
Winds:
variable wind direction at 5.8 mph (5 knots: 2.6 m/s)
Visibility:
Ceiling:
500 feet AGL
4,000 feet AGL
Clouds:
Broken Cloud Cover at 500 feet AGL
Overcast Skies at 2,000 feet AGL
Overcast Skies at 4,000 feet AGL
Weather:
Moderate Shower(s) Rain
FBO's on the Field
FBO Company Facility Photos Services Transportation Aviation Fuel Prices: Prices include tax
Catering Weather Repair Courtesy Rental Type 100LL JetA JetA+ MOGAS 8087
 
Hampton Roads Executive Airport

Currently rated 5 by 1 person
FS:Shell
Last Updated: May-02
Login to update fuel prices
SS:
Contact Hampton Roads Executive AirportMore FBO Information
 
Add another FBO Facility Photos Catering Weather Repair Courtesy Rental Type 100LL JetA JetA+ MOGAS 8087
Services Transportation Aviation Fuel Prices: Prices include tax


model-print
model-print
model-print
model-print